Time;durP1;ratioP1;P1;durP2;ratioP2;P2;SDS_P1;SDS_P2;PMS_P1;PMS_P2;Temp;Humidity;BMP_temperature;BMP_pressure;BME280_temperature;BME280_humidity;BME280_pressure;Samples;Min_cycle;Max_cycle;Signal;HPM_P1;HPM_P2
2021/06/03 00:00:46;;;;;;;4.80;4.40;;;16.70;99.90;;;;;;5031053;28;20051;-76
2021/06/03 00:03:13;;;;;;;8.27;4.18;;;16.70;99.90;;;;;;5031980;28;20033;-76
2021/06/03 00:05:48;;;;;;;7.57;4.60;;;16.70;99.90;;;;;;5035195;28;20033;-76
2021/06/03 00:08:38;;;;;;;6.47;4.85;;;16.60;99.90;;;;;;5034199;28;20538;-77
2021/06/03 00:11:12;;;;;;;5.70;4.28;;;16.60;99.90;;;;;;5020125;28;20041;-76
2021/06/03 00:13:40;;;;;;;9.43;4.95;;;16.60;99.90;;;;;;5026405;28;20029;-77
2021/06/03 00:16:11;;;;;;;8.63;5.00;;;16.70;99.90;;;;;;5031339;28;20083;-77
2021/06/03 00:18:38;;;;;;;8.57;4.13;;;16.70;99.90;;;;;;5030679;28;20476;-77
2021/06/03 00:21:05;;;;;;;4.85;4.45;;;16.70;99.90;;;;;;5012814;28;20505;-76
2021/06/03 00:23:31;;;;;;;5.13;4.70;;;16.80;99.90;;;;;;5031058;28;20032;-76
2021/06/03 00:25:57;;;;;;;5.18;4.63;;;16.80;99.90;;;;;;5012493;28;20017;-76
2021/06/03 00:28:22;;;;;;;8.73;4.18;;;16.70;99.90;;;;;;5012440;28;20075;-76
2021/06/03 00:30:48;;;;;;;4.75;4.35;;;16.70;99.90;;;;;;5028768;28;20057;-76
2021/06/03 00:33:14;;;;;;;4.72;4.20;;;16.60;99.90;;;;;;5034189;28;20094;-75
2021/06/03 00:35:41;;;;;;;8.10;4.45;;;16.60;99.90;;;;;;5031428;28;20026;-77
2021/06/03 00:38:06;;;;;;;6.47;4.10;;;16.60;99.90;;;;;;5040627;28;20029;-76
2021/06/03 00:40:32;;;;;;;6.38;5.00;;;16.50;99.90;;;;;;5034117;28;20025;-76
2021/06/03 00:42:58;;;;;;;5.75;5.10;;;16.50;99.90;;;;;;5031061;28;20395;-76
2021/06/03 00:45:32;;;;;;;5.35;4.65;;;16.50;99.90;;;;;;5029993;28;20033;-76
2021/06/03 00:48:01;;;;;;;4.45;4.15;;;16.50;99.90;;;;;;5031776;28;20116;-74
2021/06/03 00:50:43;;;;;;;8.95;4.43;;;16.50;99.90;;;;;;5034079;28;20507;-76
2021/06/03 00:53:16;;;;;;;7.10;4.80;;;16.50;99.90;;;;;;5040917;28;20065;-74
2021/06/03 00:55:48;;;;;;;7.53;4.47;;;16.40;99.90;;;;;;5031123;28;20487;-75
2021/06/03 00:58:15;;;;;;;;;;;16.40;99.90;;;;;;5031222;28;20033;-75
2021/06/03 01:00:41;;;;;;;7.82;4.65;;;16.40;99.90;;;;;;5030577;28;20485;-75
2021/06/03 01:03:08;;;;;;;4.80;4.40;;;16.30;99.90;;;;;;5013835;28;20026;-76
2021/06/03 01:05:44;;;;;;;5.60;4.60;;;16.20;99.90;;;;;;5039133;28;20001;-76
2021/06/03 01:08:20;;;;;;;6.40;4.72;;;16.30;99.90;;;;;;5016181;28;20028;-78
2021/06/03 01:11:22;;;;;;;5.35;4.85;;;16.30;99.90;;;;;;5030156;28;20026;-76
2021/06/03 01:13:55;;;;;;;8.38;4.75;;;16.30;99.90;;;;;;5030700;28;20578;-76
2021/06/03 01:16:34;;;;;;;7.68;5.65;;;16.30;99.90;;;;;;5028266;28;20087;-76
2021/06/03 01:19:04;;;;;;;6.05;5.10;;;16.30;99.90;;;;;;5040445;28;20503;-76
2021/06/03 01:21:46;;;;;;;15.40;5.43;;;16.20;99.90;;;;;;5031661;28;20681;-75
2021/06/03 01:24:22;;;;;;;;;;;16.20;99.90;;;;;;5030201;28;20021;-74
2021/06/03 01:26:49;;;;;;;5.38;4.90;;;16.10;99.90;;;;;;5030949;28;19912;-75
2021/06/03 01:29:18;;;;;;;6.70;4.40;;;16.10;99.90;;;;;;5030241;28;20025;-75
2021/06/03 01:31:51;;;;;;;4.43;4.07;;;16.00;99.90;;;;;;5030926;28;20071;-76
2021/06/03 01:34:20;;;;;;;8.43;4.55;;;16.00;99.90;;;;;;5012102;28;20396;-75
2021/06/03 01:36:47;;;;;;;8.70;5.00;;;16.00;99.90;;;;;;5020912;28;20026;-75
2021/06/03 01:39:14;;;;;;;6.05;4.45;;;16.00;99.90;;;;;;5026147;28;20037;-74
2021/06/03 01:41:40;;;;;;;5.07;4.38;;;16.10;99.90;;;;;;5023437;28;20029;-75
2021/06/03 01:44:06;;;;;;;4.60;4.20;;;16.10;99.90;;;;;;5034026;28;20028;-75
2021/06/03 01:46:32;;;;;;;4.80;4.38;;;16.10;99.90;;;;;;5032225;28;20036;-75
2021/06/03 01:48:58;;;;;;;5.03;4.40;;;16.10;99.90;;;;;;5032113;28;20057;-75
2021/06/03 01:51:25;;;;;;;6.07;4.97;;;16.10;99.90;;;;;;5032156;28;20079;-75
2021/06/03 01:53:52;;;;;;;5.47;4.72;;;16.10;99.90;;;;;;5015928;28;20028;-75
2021/06/03 01:56:18;;;;;;;5.40;5.00;;;16.10;99.90;;;;;;5031555;28;20096;-76
2021/06/03 01:58:46;;;;;;;5.47;4.43;;;16.10;99.90;;;;;;5031446;28;20518;-75
2021/06/03 02:01:12;;;;;;;4.60;4.20;;;16.10;99.90;;;;;;5031915;28;20038;-75
2021/06/03 02:03:38;;;;;;;4.95;4.47;;;16.00;99.90;;;;;;5034026;28;20022;-75
2021/06/03 02:06:05;;;;;;;10.35;5.13;;;16.00;99.90;;;;;;5034094;28;20053;-75
2021/06/03 02:08:31;;;;;;;4.03;3.63;;;15.90;99.90;;;;;;5032184;28;20029;-76
2021/06/03 02:10:57;;;;;;;6.35;4.35;;;15.90;99.90;;;;;;5032718;28;20033;-76
2021/06/03 02:13:39;;;;;;;6.53;5.28;;;15.90;99.90;;;;;;5029505;28;20030;-76
2021/06/03 02:16:05;;;;;;;;;;;15.80;99.90;;;;;;5031939;28;20021;-75
2021/06/03 02:18:55;;;;;;;6.72;4.43;;;15.90;99.90;;;;;;5032801;28;20297;-75
2021/06/03 02:21:23;;;;;;;8.02;4.63;;;15.90;99.90;;;;;;5025542;28;20018;-76
2021/06/03 02:23:50;;;;;;;6.93;4.40;;;15.90;99.90;;;;;;5031245;28;20361;-75
2021/06/03 02:26:17;;;;;;;7.00;5.32;;;15.90;99.90;;;;;;5014741;28;20052;-75
2021/06/03 02:28:44;;;;;;;5.50;5.03;;;16.00;99.90;;;;;;5030660;28;20033;-75
2021/06/03 02:31:10;;;;;;;7.05;4.78;;;15.90;99.90;;;;;;5012745;28;20036;-75
2021/06/03 02:33:36;;;;;;;5.10;4.60;;;15.90;99.90;;;;;;5030646;28;20029;-75
2021/06/03 02:36:02;;;;;;;6.57;4.55;;;15.80;99.90;;;;;;5031800;28;20029;-75
2021/06/03 02:38:30;;;;;;;5.75;4.40;;;15.80;99.90;;;;;;5030472;28;20018;-74
2021/06/03 02:41:01;;;;;;;5.60;3.92;;;15.70;99.90;;;;;;5024857;28;20037;-74
2021/06/03 02:43:28;;;;;;;4.63;4.18;;;15.80;99.90;;;;;;5028200;28;20503;-74
2021/06/03 02:45:54;;;;;;;4.65;4.25;;;15.80;99.90;;;;;;5031425;28;20092;-76
2021/06/03 02:48:20;;;;;;;5.13;4.55;;;15.80;99.90;;;;;;5030587;28;20021;-75
2021/06/03 02:50:47;;;;;;;4.65;4.10;;;15.80;99.90;;;;;;5031754;28;20412;-75
2021/06/03 02:53:13;;;;;;;4.97;4.47;;;15.90;99.90;;;;;;5030684;28;20155;-74
2021/06/03 02:55:41;;;;;;;7.55;4.13;;;15.80;99.90;;;;;;5031563;28;20029;-76
2021/06/03 02:58:07;;;;;;;4.45;3.78;;;15.80;99.90;;;;;;5031615;28;20487;-75
2021/06/03 03:00:37;;;;;;;6.88;4.07;;;15.80;99.90;;;;;;5013473;28;20633;-75
2021/06/03 03:03:05;;;;;;;7.43;4.78;;;15.80;99.90;;;;;;5020176;28;20044;-76
2021/06/03 03:05:31;;;;;;;6.32;4.20;;;15.70;99.90;;;;;;4985792;28;20059;-76
2021/06/03 03:07:57;;;;;;;4.65;4.15;;;15.70;99.90;;;;;;5031023;28;20056;-76
2021/06/03 03:10:32;;;;;;;4.40;3.55;;;15.70;99.90;;;;;;5032504;28;20444;-76
2021/06/03 03:12:58;;;;;;;5.85;3.95;;;15.70;99.90;;;;;;5031095;28;20027;-76
2021/06/03 03:15:24;;;;;;;3.85;3.55;;;15.80;99.90;;;;;;5032333;28;20047;-75
2021/06/03 03:17:50;;;;;;;5.38;4.15;;;15.80;99.90;;;;;;5032509;28;20039;-75
2021/06/03 03:20:18;;;;;;;6.32;4.95;;;15.80;99.90;;;;;;5032321;28;20386;-75
2021/06/03 03:22:45;;;;;;;7.15;3.78;;;15.80;99.90;;;;;;5032139;28;20021;-75
2021/06/03 03:25:13;;;;;;;8.38;4.30;;;15.80;99.90;;;;;;5033204;28;20026;-75
2021/06/03 03:27:43;;;;;;;9.25;4.18;;;15.80;99.90;;;;;;5032180;28;20067;-76
2021/06/03 03:30:11;;;;;;;5.85;4.63;;;15.70;99.90;;;;;;5031447;28;20326;-75
2021/06/03 03:32:37;;;;;;;5.10;4.68;;;15.70;99.90;;;;;;5030164;28;20033;-76
2021/06/03 03:35:05;;;;;;;6.20;4.25;;;15.80;99.90;;;;;;5034084;28;20036;-76
2021/06/03 03:37:30;;;;;;;5.20;4.15;;;15.70;99.90;;;;;;5035346;28;20026;-75
2021/06/03 03:39:56;;;;;;;4.85;4.30;;;15.80;99.90;;;;;;5036071;28;20040;-76
2021/06/03 03:42:23;;;;;;;8.13;4.85;;;15.90;99.90;;;;;;5036552;28;20491;-76
2021/06/03 03:44:49;;;;;;;4.82;4.40;;;16.00;99.90;;;;;;5034237;28;20028;-75
2021/06/03 03:47:15;;;;;;;4.05;3.75;;;16.10;99.90;;;;;;5034139;28;20060;-75
2021/06/03 03:49:41;;;;;;;5.50;4.93;;;16.20;99.90;;;;;;5034830;28;20395;-75
2021/06/03 03:52:07;;;;;;;5.30;3.95;;;16.30;99.90;;;;;;5031164;28;20034;-75
2021/06/03 03:54:33;;;;;;;5.65;4.47;;;16.30;99.90;;;;;;5031166;28;20033;-75
2021/06/03 03:56:59;;;;;;;5.10;4.07;;;16.40;99.90;;;;;;5029847;28;20595;-75
2021/06/03 03:59:25;;;;;;;3.72;3.40;;;16.40;99.90;;;;;;5029988;28;20562;-75
2021/06/03 04:01:54;;;;;;;16.20;4.40;;;16.30;99.90;;;;;;5029918;28;20357;-74
2021/06/03 04:04:21;;;;;;;10.65;4.40;;;16.30;99.90;;;;;;5029592;28;20383;-75
2021/06/03 04:06:47;;;;;;;4.97;3.88;;;16.30;99.90;;;;;;5030871;28;20475;-76
2021/06/03 04:09:13;;;;;;;6.28;3.95;;;16.20;99.90;;;;;;5030093;28;20022;-75
2021/06/03 04:11:39;;;;;;;3.70;3.40;;;16.30;99.90;;;;;;5012702;28;20550;-76
2021/06/03 04:14:05;;;;;;;7.88;3.83;;;16.30;99.90;;;;;;5012260;28;20017;-76
2021/06/03 04:16:31;;;;;;;6.93;3.75;;;16.40;99.90;;;;;;5028764;28;20021;-75
2021/06/03 04:18:56;;;;;;;8.13;3.78;;;16.40;99.90;;;;;;5029159;28;20132;-76
2021/06/03 04:21:22;;;;;;;5.15;3.95;;;16.50;99.90;;;;;;5030407;28;20041;-76
2021/06/03 04:23:48;;;;;;;7.50;4.47;;;16.40;99.90;;;;;;5030267;28;20069;-74
2021/06/03 04:26:15;;;;;;;96.07;77.55;;;16.50;99.90;;;;;;5030063;28;20021;-76
2021/06/03 04:28:41;;;;;;;3.92;3.63;;;16.50;99.90;;;;;;5029159;28;20351;-75
2021/06/03 04:31:06;;;;;;;6.00;4.10;;;16.50;99.90;;;;;;5030137;28;20491;-75
2021/06/03 04:33:32;;;;;;;4.75;3.78;;;16.60;99.90;;;;;;5029792;28;20036;-75
2021/06/03 04:35:58;;;;;;;5.05;4.63;;;16.60;99.90;;;;;;5026715;28;20032;-76
2021/06/03 04:38:24;;;;;;;4.07;3.78;;;16.70;99.90;;;;;;5024852;28;20056;-75
2021/06/03 04:40:50;;;;;;;5.90;4.20;;;16.90;99.90;;;;;;5003378;28;20060;-76
2021/06/03 04:43:16;;;;;;;5.00;4.32;;;17.00;99.90;;;;;;5022091;28;20052;-76
2021/06/03 04:45:42;;;;;;;4.00;3.58;;;17.10;99.90;;;;;;5026789;28;20076;-76
2021/06/03 04:48:09;;;;;;;6.82;4.03;;;17.20;99.90;;;;;;5030018;28;20420;-77
2021/06/03 04:50:37;;;;;;;8.68;3.60;;;17.30;99.90;;;;;;5029967;28;20029;-77
2021/06/03 04:53:03;;;;;;;5.95;3.42;;;17.30;99.90;;;;;;5013286;28;20488;-76
2021/06/03 04:55:30;;;;;;;6.00;4.72;;;17.50;99.90;;;;;;5012431;28;20064;-76
2021/06/03 04:57:56;;;;;;;4.25;3.85;;;17.50;99.90;;;;;;5029279;28;20391;-76
2021/06/03 05:00:26;;;;;;;7.65;4.15;;;17.50;99.90;;;;;;5028137;28;20022;-76
2021/06/03 05:02:52;;;;;;;4.00;3.60;;;17.50;99.90;;;;;;5024848;28;20022;-76
2021/06/03 05:05:18;;;;;;;3.42;3.13;;;17.50;99.90;;;;;;5029059;28;20018;-77
2021/06/03 05:07:46;;;;;;;6.28;3.70;;;17.60;99.90;;;;;;5028814;28;20033;-76
2021/06/03 05:10:13;;;;;;;5.95;3.47;;;17.60;99.90;;;;;;5031379;28;20059;-77
2021/06/03 05:12:39;;;;;;;4.53;4.13;;;17.70;99.90;;;;;;5034424;28;20056;-77
2021/06/03 05:15:07;;;;;;;5.93;3.47;;;17.70;99.90;;;;;;5032133;28;20483;-77
2021/06/03 05:17:34;;;;;;;8.60;4.82;;;17.80;99.90;;;;;;5035863;28;20029;-77
2021/06/03 05:20:00;;;;;;;4.07;3.13;;;17.80;99.90;;;;;;5034704;28;20036;-76
2021/06/03 05:22:25;;;;;;;5.68;3.72;;;17.90;99.90;;;;;;5036493;28;20538;-76
2021/06/03 05:24:51;;;;;;;3.90;3.33;;;18.00;99.90;;;;;;5038842;28;20037;-76
2021/06/03 05:27:17;;;;;;;4.25;3.85;;;18.10;99.90;;;;;;5033691;28;20055;-77
2021/06/03 05:29:43;;;;;;;4.25;3.85;;;18.10;99.90;;;;;;5034675;28;20386;-76
2021/06/03 05:32:09;;;;;;;11.90;3.58;;;18.20;99.90;;;;;;5033676;28;20026;-77
2021/06/03 05:34:34;;;;;;;4.00;3.65;;;18.30;99.90;;;;;;5030294;28;20373;-77
2021/06/03 05:37:00;;;;;;;4.22;3.90;;;18.40;99.90;;;;;;5032491;28;20095;-77
2021/06/03 05:39:26;;;;;;;5.60;3.88;;;18.60;99.90;;;;;;5034420;28;20033;-76
2021/06/03 05:41:52;;;;;;;8.30;3.63;;;18.70;99.90;;;;;;5035437;28;20021;-77
2021/06/03 05:44:18;;;;;;;4.22;3.17;;;18.90;99.90;;;;;;5036149;28;20108;-78
2021/06/03 05:46:44;;;;;;;5.75;3.47;;;19.00;99.90;;;;;;5034711;28;20025;-77
2021/06/03 05:49:11;;;;;;;5.07;4.45;;;19.10;99.90;;;;;;5034533;28;20480;-77
2021/06/03 05:51:40;;;;;;;4.80;3.90;;;19.20;99.90;;;;;;5033078;28;20026;-77
2021/06/03 05:54:07;;;;;;;5.95;4.03;;;19.30;99.90;;;;;;5035711;28;20029;-76
2021/06/03 05:56:33;;;;;;;8.05;4.32;;;19.40;99.90;;;;;;5033725;28;20025;-77
2021/06/03 05:58:59;;;;;;;5.55;3.90;;;19.50;99.90;;;;;;5034509;28;20021;-75
2021/06/03 06:01:26;;;;;;;4.25;3.53;;;19.70;99.90;;;;;;5033061;28;20148;-76
2021/06/03 06:06:27;;;;;;;4.93;4.00;;;19.80;99.90;;;;;;5033979;28;20511;-76
2021/06/03 06:09:01;;;;;;;12.52;3.55;;;19.70;99.90;;;;;;5033745;28;20104;-76
2021/06/03 06:11:29;;;;;;;4.18;3.83;;;19.80;99.90;;;;;;5032502;28;20026;-76
2021/06/03 06:13:55;;;;;;;6.28;3.92;;;19.90;99.90;;;;;;5036995;28;20079;-77
2021/06/03 06:16:21;;;;;;;6.18;4.00;;;20.00;99.90;;;;;;5035314;28;20025;-77
2021/06/03 06:18:47;;;;;;;7.15;3.25;;;20.10;99.90;;;;;;5034372;28;20427;-77
2021/06/03 06:21:16;;;;;;;4.40;3.55;;;20.30;99.90;;;;;;5033544;28;20041;-77
2021/06/03 06:23:43;;;;;;;4.50;4.10;;;20.40;99.90;;;;;;5016343;28;20026;-76
2021/06/03 06:26:09;;;;;;;6.05;3.45;;;20.60;99.90;;;;;;5034571;28;20079;-77
2021/06/03 06:28:35;;;;;;;9.45;3.88;;;20.80;99.90;;;;;;5031543;28;20418;-77
2021/06/03 06:31:02;;;;;;;4.88;3.45;;;20.80;99.90;;;;;;5034390;28;20032;-76
2021/06/03 06:33:28;;;;;;;9.50;4.55;;;20.90;99.90;;;;;;5032503;28;20025;-77
2021/06/03 06:35:54;;;;;;;3.70;3.17;;;21.00;99.90;;;;;;5034893;28;20032;-77
2021/06/03 06:38:22;;;;;;;3.75;3.45;;;21.20;99.90;;;;;;5032508;28;20090;-77
2021/06/03 06:40:50;;;;;;;17.67;6.80;;;21.30;99.90;;;;;;5033344;28;20021;-69
2021/06/03 06:43:16;;;;;;;13.32;4.10;;;21.40;99.90;;;;;;5018065;28;21035;-70
2021/06/03 06:45:43;;;;;;;7.13;3.78;;;21.50;99.90;;;;;;5029785;28;20022;-68
2021/06/03 06:48:10;;;;;;;14.77;4.28;;;21.40;99.90;;;;;;5031527;28;20025;-70
2021/06/03 06:50:38;;;;;;;4.78;3.97;;;21.40;99.90;;;;;;5032351;28;20021;-70
2021/06/03 06:53:06;;;;;;;11.65;4.30;;;21.50;99.90;;;;;;5032236;28;20108;-70
2021/06/03 06:55:32;;;;;;;15.40;5.18;;;21.50;99.90;;;;;;5031855;28;20035;-71
2021/06/03 06:57:59;;;;;;;9.45;4.70;;;21.60;99.90;;;;;;5032004;28;20479;-71
2021/06/03 07:00:27;;;;;;;12.30;5.18;;;21.50;99.90;;;;;;5031572;28;20467;-71
2021/06/03 07:02:53;;;;;;;8.30;3.80;;;21.50;99.90;;;;;;5031193;28;20029;-71
2021/06/03 07:05:20;;;;;;;15.05;5.25;;;21.60;99.90;;;;;;5032594;28;20028;-71
2021/06/03 07:07:46;;;;;;;8.15;4.63;;;21.60;99.90;;;;;;5033348;28;20109;-71
2021/06/03 07:10:15;;;;;;;16.63;5.53;;;21.60;99.90;;;;;;5031756;28;20558;-72
2021/06/03 07:12:41;;;;;;;11.43;4.68;;;21.60;99.90;;;;;;5027101;28;20506;-70
2021/06/03 07:15:09;;;;;;;13.50;5.80;;;21.60;99.90;;;;;;5031805;28;20126;-71
2021/06/03 07:17:35;;;;;;;11.70;5.70;;;21.60;99.90;;;;;;5028029;28;20025;-70
2021/06/03 07:20:07;;;;;;;11.18;5.60;;;21.60;99.90;;;;;;5030902;28;20029;-70
2021/06/03 07:22:33;;;;;;;12.57;5.45;;;21.70;99.90;;;;;;5032281;28;20020;-72
2021/06/03 07:24:59;;;;;;;6.60;4.95;;;21.70;99.90;;;;;;5031438;28;20041;-72
2021/06/03 07:27:24;;;;;;;9.55;5.30;;;21.80;99.90;;;;;;5031451;28;20104;-72
2021/06/03 07:29:50;;;;;;;6.93;5.93;;;21.80;99.90;;;;;;5031456;28;20104;-71
2021/06/03 07:32:16;;;;;;;11.98;5.57;;;21.70;99.90;;;;;;5032434;28;20423;-70
2021/06/03 07:34:42;;;;;;;12.15;5.80;;;21.70;99.90;;;;;;5033331;28;20393;-71
2021/06/03 07:37:07;;;;;;;8.73;5.47;;;21.80;99.90;;;;;;5033493;28;20026;-70
2021/06/03 07:39:33;;;;;;;6.45;5.85;;;21.70;99.90;;;;;;5033807;28;20133;-70
2021/06/03 07:41:59;;;;;;;12.18;6.65;;;21.70;99.90;;;;;;5034862;28;20066;-71
2021/06/03 07:44:25;;;;;;;11.15;5.90;;;21.80;99.90;;;;;;5034150;28;20542;-71
2021/06/03 07:46:50;;;;;;;11.00;5.68;;;21.80;99.90;;;;;;5035035;28;20080;-71
2021/06/03 07:49:16;;;;;;;12.38;5.82;;;21.90;99.90;;;;;;5031855;28;20100;-71
2021/06/03 07:51:43;;;;;;;11.63;5.10;;;21.80;99.90;;;;;;5031536;28;20539;-70
2021/06/03 07:54:09;;;;;;;12.10;5.57;;;21.80;99.90;;;;;;5033095;28;20049;-70
2021/06/03 07:56:35;;;;;;;14.82;5.40;;;21.80;99.90;;;;;;5030328;28;20022;-72
2021/06/03 07:59:02;;;;;;;8.05;4.93;;;21.80;99.90;;;;;;5030519;28;20582;-72
2021/06/03 08:01:28;;;;;;;11.13;5.65;;;21.80;99.90;;;;;;5030828;28;20030;-72
2021/06/03 08:03:54;;;;;;;13.63;5.25;;;21.70;99.90;;;;;;5031280;28;20330;-73
2021/06/03 08:06:20;;;;;;;11.52;5.57;;;21.70;99.90;;;;;;5030608;28;20040;-71
2021/06/03 08:08:45;;;;;;;7.72;4.60;;;21.70;99.90;;;;;;5030435;28;20109;-73
2021/06/03 08:11:11;;;;;;;16.05;5.75;;;21.70;99.90;;;;;;5030945;28;20041;-72
2021/06/03 08:13:37;;;;;;;8.27;4.75;;;21.70;99.90;;;;;;5030476;28;20044;-72
2021/06/03 08:16:04;;;;;;;6.70;4.22;;;21.60;99.90;;;;;;5028988;28;20029;-71
2021/06/03 08:18:30;;;;;;;6.50;5.22;;;21.60;99.90;;;;;;5024596;28;20064;-72
2021/06/03 08:21:02;;;;;;;7.45;5.35;;;21.50;99.90;;;;;;5030736;28;20156;-71
2021/06/03 08:23:28;;;;;;;11.77;6.90;;;21.50;99.90;;;;;;5030206;28;20144;-73
2021/06/03 08:25:56;;;;;;;11.23;6.38;;;21.50;99.90;;;;;;5012695;28;20503;-74
2021/06/03 08:28:24;;;;;;;5.68;4.68;;;21.50;99.90;;;;;;5030433;28;20049;-73
2021/06/03 08:30:51;;;;;;;7.07;5.20;;;21.50;99.90;;;;;;5031094;28;20017;-74
2021/06/03 08:33:17;;;;;;;6.38;4.85;;;21.50;99.90;;;;;;5030725;28;20021;-74
2021/06/03 08:35:43;;;;;;;6.60;5.90;;;21.50;99.90;;;;;;5030832;28;20526;-73
2021/06/03 08:38:11;;;;;;;14.95;6.82;;;21.60;99.90;;;;;;5030328;28;20057;-73
2021/06/03 08:40:43;;;;;;;13.32;5.20;;;21.60;99.90;;;;;;5012747;28;20037;-74
2021/06/03 08:43:09;;;;;;;10.32;5.95;;;21.70;99.90;;;;;;5013155;28;20033;-73
2021/06/03 08:45:37;;;;;;;6.65;5.78;;;21.80;99.90;;;;;;5012378;28;20029;-73
2021/06/03 08:48:04;;;;;;;7.40;5.22;;;21.90;99.90;;;;;;5029945;28;20479;-73
2021/06/03 08:50:33;;;;;;;11.27;6.10;;;22.00;99.90;;;;;;5029765;28;20222;-73
2021/06/03 08:53:00;;;;;;;5.90;3.75;;;22.00;99.90;;;;;;5030167;28;20340;-74
2021/06/03 08:58:16;;;;;;;6.85;4.13;;;22.10;99.90;;;;;;5029877;28;20047;-73
2021/06/03 09:00:43;;;;;;;8.02;4.03;;;21.90;99.90;;;;;;5030463;28;20032;-73
2021/06/03 09:03:10;;;;;;;5.32;3.47;;;21.80;99.90;;;;;;5030307;28;20501;-73
2021/06/03 09:05:36;;;;;;;3.30;3.00;;;21.90;99.90;;;;;;5030372;28;20056;-73
2021/06/03 09:08:21;;;;;;;3.85;3.15;;;22.00;99.90;;;;;;5030173;28;20425;-74
2021/06/03 09:10:53;;;;;;;3.90;3.45;;;22.20;99.90;;;;;;5030567;28;20033;-74
2021/06/03 09:13:25;;;;;;;5.57;3.45;;;22.30;99.90;;;;;;5030383;28;20028;-74
2021/06/03 09:16:00;;;;;;;8.43;3.60;;;22.30;99.90;;;;;;5029427;28;20025;-74
2021/06/03 09:18:38;;;;;;;7.72;3.03;;;22.40;99.90;;;;;;5030134;28;20032;-74
2021/06/03 09:21:16;;;;;;;3.85;3.42;;;22.40;99.90;;;;;;5012358;28;20030;-73
2021/06/03 09:23:56;;;;;;;10.63;3.90;;;22.40;99.90;;;;;;5030110;28;20095;-74
2021/06/03 09:26:24;;;;;;;6.75;3.95;;;22.50;99.90;;;;;;5030171;28;20619;-73
2021/06/03 09:28:51;;;;;;;8.10;3.20;;;22.50;99.90;;;;;;5029016;28;20124;-75
2021/06/03 09:31:26;;;;;;;3.92;2.80;;;22.50;99.90;;;;;;5030107;28;20029;-73
2021/06/03 09:34:09;;;;;;;4.45;2.80;;;22.50;99.90;;;;;;5030238;28;20484;-74
2021/06/03 09:36:42;;;;;;;3.75;3.13;;;22.50;99.90;;;;;;5030165;28;20029;-74
2021/06/03 09:39:10;;;;;;;3.13;2.75;;;22.50;99.90;;;;;;5030260;28;20099;-73
2021/06/03 09:41:40;;;;;;;7.30;3.10;;;22.50;99.90;;;;;;5030216;28;20034;-73
2021/06/03 09:44:12;;;;;;;4.53;3.13;;;22.50;99.90;;;;;;5030255;28;20547;-73
2021/06/03 09:46:45;;;;;;;5.88;3.20;;;22.40;99.90;;;;;;5029134;28;20053;-73
2021/06/03 09:49:17;;;;;;;4.63;3.15;;;22.40;99.90;;;;;;5030283;28;20026;-72
2021/06/03 09:51:45;;;;;;;3.72;3.15;;;22.40;99.90;;;;;;5030243;28;20061;-74
2021/06/03 09:54:13;;;;;;;3.42;3.10;;;22.40;99.90;;;;;;5030545;28;20057;-74
2021/06/03 09:56:41;;;;;;;6.13;3.60;;;22.40;99.90;;;;;;5029663;28;20053;-73
2021/06/03 09:59:18;;;;;;;3.85;3.45;;;22.60;99.90;;;;;;5029270;28;20479;-73
2021/06/03 10:01:55;;;;;;;3.53;3.22;;;22.50;99.90;;;;;;5029971;28;20029;-73
2021/06/03 10:04:31;;;;;;;6.35;4.50;;;22.40;99.90;;;;;;5033311;28;20020;-74
2021/06/03 10:07:13;;;;;;;5.30;3.15;;;22.40;99.90;;;;;;5033022;28;20025;-73
2021/06/03 10:10:04;;;;;;;7.65;3.30;;;22.50;99.90;;;;;;5033282;28;20427;-73
2021/06/03 10:12:40;;;;;;;8.38;4.00;;;22.60;99.90;;;;;;5020747;28;20120;-74
2021/06/03 10:15:20;;;;;;;6.63;3.53;;;22.50;99.90;;;;;;5032570;28;20392;-73
2021/06/03 10:17:58;;;;;;;3.70;3.50;;;22.50;99.90;;;;;;5032473;28;20021;-73
2021/06/03 10:20:30;;;;;;;7.25;4.47;;;22.50;99.90;;;;;;5014807;28;20036;-74
2021/06/03 10:22:56;;;;;;;5.00;4.57;;;22.50;99.90;;;;;;5031735;28;20024;-73
2021/06/03 10:25:27;;;;;;;5.30;3.55;;;22.70;99.90;;;;;;5032445;28;20022;-73
2021/06/03 10:28:08;;;;;;;6.32;4.05;;;22.60;99.90;;;;;;5032419;28;20087;-74
2021/06/03 10:30:35;;;;;;;9.25;4.25;;;22.60;99.90;;;;;;5032734;28;20029;-74
2021/06/03 10:33:14;;;;;;;5.35;3.97;;;22.50;99.90;;;;;;5033070;28;20095;-73
2021/06/03 10:35:42;;;;;;;9.93;3.83;;;22.50;99.90;;;;;;5032747;28;20443;-73
2021/06/03 10:38:11;;;;;;;4.38;3.97;;;22.60;99.90;;;;;;5032355;28;20029;-73
2021/06/03 10:40:44;;;;;;;6.97;4.15;;;22.60;99.90;;;;;;5032740;28;20063;-73
2021/06/03 10:43:10;;;;;;;4.57;4.18;;;22.50;99.90;;;;;;5032466;28;20117;-73
2021/06/03 10:45:37;;;;;;;3.55;3.25;;;22.60;99.90;;;;;;5031027;28;20537;-72
2021/06/03 10:48:04;;;;;;;5.72;4.70;;;22.60;99.90;;;;;;5030911;28;20785;-73
2021/06/03 10:50:35;;;;;;;7.80;4.53;;;22.60;99.90;;;;;;5032209;28;20026;-74
2021/06/03 10:53:10;;;;;;;6.07;5.13;;;22.60;99.90;;;;;;5032837;28;20097;-74
2021/06/03 10:55:40;;;;;;;6.50;4.93;;;22.70;99.90;;;;;;5032834;28;20099;-74
2021/06/03 10:58:08;;;;;;;5.50;4.63;;;22.70;99.90;;;;;;5031885;28;20124;-74
2021/06/03 11:00:40;;;;;;;4.43;3.92;;;22.80;99.90;;;;;;5032521;28;20035;-74
2021/06/03 11:03:06;;;;;;;;;;;22.60;99.90;;;;;;5032205;28;20018;-74
2021/06/03 11:05:36;;;;;;;10.00;4.13;;;22.60;99.90;;;;;;5032312;28;20392;-73
2021/06/03 11:08:25;;;;;;;7.18;4.97;;;22.50;99.90;;;;;;5014105;28;20037;-73
2021/06/03 11:10:52;;;;;;;5.97;5.00;;;22.40;99.90;;;;;;5030868;28;20403;-73
2021/06/03 11:13:22;;;;;;;6.65;3.83;;;22.40;99.90;;;;;;5031650;28;20025;-73
2021/06/03 11:16:07;;;;;;;3.88;3.10;;;22.40;99.90;;;;;;5013946;28;20061;-74
2021/06/03 11:18:42;;;;;;;3.88;3.55;;;22.50;99.90;;;;;;5031105;28;20041;-73
2021/06/03 11:21:09;;;;;;;3.90;3.30;;;22.60;99.90;;;;;;5031940;28;20029;-74
2021/06/03 11:23:34;;;;;;;3.17;2.88;;;22.60;99.90;;;;;;5031984;28;20390;-73
2021/06/03 11:26:01;;;;;;;6.25;3.10;;;22.70;99.90;;;;;;5031661;28;20021;-73
2021/06/03 11:28:28;;;;;;;7.75;4.00;;;22.60;99.90;;;;;;5031061;28;20014;-74
2021/06/03 11:30:54;;;;;;;3.28;2.78;;;22.60;99.90;;;;;;5031848;28;20052;-74
2021/06/03 11:33:21;;;;;;;3.55;3.17;;;22.80;99.90;;;;;;5031881;28;20103;-73
2021/06/03 11:35:46;;;;;;;3.00;2.75;;;23.00;99.90;;;;;;5031319;28;20037;-73
2021/06/03 11:38:39;;;;;;;4.20;3.80;;;23.10;99.90;;;;;;5031173;28;20029;-74
2021/06/03 11:41:25;;;;;;;3.80;3.50;;;23.10;99.90;;;;;;5030388;28;20064;-74
2021/06/03 11:44:20;;;;;;;3.25;3.05;;;23.30;99.90;;;;;;5031082;28;20104;-73
2021/06/03 11:46:54;;;;;;;5.50;3.08;;;23.40;99.90;;;;;;4996879;28;20036;-73
2021/06/03 11:49:41;;;;;;;5.63;2.97;;;23.40;99.90;;;;;;5031734;28;20068;-74
2021/06/03 11:52:13;;;;;;;3.13;2.90;;;23.50;99.90;;;;;;5030439;28;20116;-74
2021/06/03 11:54:57;;;;;;;4.07;2.97;;;23.40;99.90;;;;;;5031179;28;20030;-74
2021/06/03 11:57:31;;;;;;;3.30;2.95;;;23.30;99.90;;;;;;5030952;28;20030;-73
2021/06/03 11:59:58;;;;;;;2.90;2.70;;;23.20;99.90;;;;;;5031213;28;20386;-74
2021/06/03 12:02:38;;;;;;;3.50;2.88;;;23.10;99.90;;;;;;5013350;28;20385;-74
2021/06/03 12:05:13;;;;;;;6.95;3.35;;;23.00;99.90;;;;;;5013006;28;20083;-73
2021/06/03 12:07:46;;;;;;;4.15;2.60;;;23.10;99.90;;;;;;5030525;28;20498;-74
2021/06/03 12:10:15;;;;;;;3.58;3.28;;;23.20;99.90;;;;;;5029632;28;20037;-73
2021/06/03 12:12:43;;;;;;;3.63;3.33;;;23.20;99.90;;;;;;5030338;28;20079;-74
2021/06/03 12:15:17;;;;;;;6.30;3.13;;;23.10;99.90;;;;;;5030635;28;20483;-74
2021/06/03 12:17:44;;;;;;;4.80;2.95;;;23.10;99.90;;;;;;5030449;28;20029;-74
2021/06/03 12:20:13;;;;;;;3.78;2.85;;;23.20;99.90;;;;;;5030730;28;20053;-73
2021/06/03 12:22:39;;;;;;;3.50;2.92;;;23.20;99.90;;;;;;5030493;28;20097;-73
2021/06/03 12:25:06;;;;;;;3.45;3.15;;;23.20;99.90;;;;;;5030490;28;20076;-74
2021/06/03 12:27:44;;;;;;;3.28;2.72;;;23.40;99.90;;;;;;5030240;28;20039;-73
2021/06/03 12:30:23;;;;;;;7.60;3.03;;;23.40;99.90;;;;;;5030738;28;20049;-73
2021/06/03 12:33:03;;;;;;;7.80;2.80;;;23.60;99.90;;;;;;5030086;28;20115;-74
2021/06/03 12:35:41;;;;;;;5.60;2.90;;;23.60;99.90;;;;;;5030507;28;20101;-73
2021/06/03 12:38:09;;;;;;;2.85;2.65;;;23.60;99.90;;;;;;5030408;28;20112;-75
2021/06/03 12:40:36;;;;;;;3.78;3.20;;;23.40;99.90;;;;;;5011947;28;20021;-73
2021/06/03 12:43:07;;;;;;;2.85;2.65;;;23.30;99.90;;;;;;5030126;28;20108;-73
2021/06/03 12:45:37;;;;;;;5.32;3.28;;;23.20;99.90;;;;;;5012976;28;20029;-73
2021/06/03 12:48:05;;;;;;;5.25;3.15;;;23.20;99.90;;;;;;5030649;28;20025;-74
2021/06/03 12:50:37;;;;;;;3.05;2.80;;;23.40;99.90;;;;;;5030867;28;20440;-73
2021/06/03 12:53:09;;;;;;;3.95;2.90;;;23.40;99.90;;;;;;5030612;28;20053;-73
2021/06/03 12:55:34;;;;;;;;;;;23.50;99.90;;;;;;5030900;28;20033;-73
2021/06/03 12:58:08;;;;;;;4.82;3.38;;;23.40;99.90;;;;;;5030187;28;19916;-73
2021/06/03 13:00:35;;;;;;;3.42;2.60;;;23.20;99.90;;;;;;5030315;28;20029;-74
2021/06/03 13:03:24;;;;;;;3.33;2.80;;;23.30;99.90;;;;;;5031053;28;20060;-73